createdAt,value
2022-10-09T07:32:12.709Z,14.80
2022-10-09T07:34:40.987Z,14.80
2022-10-09T07:37:11.672Z,14.00
2022-10-09T07:39:42.882Z,14.64
2022-10-09T07:42:13.144Z,14.73
2022-10-09T07:44:40.780Z,14.78
2022-10-09T07:47:08.580Z,14.96
2022-10-09T07:49:36.893Z,15.12
2022-10-09T07:52:04.685Z,14.95
2022-10-09T07:54:32.360Z,15.04
2022-10-09T07:57:00.553Z,14.86
2022-10-09T07:59:28.451Z,15.04
2022-10-09T08:01:56.314Z,15.32
2022-10-09T08:04:24.338Z,15.23
2022-10-09T08:06:52.138Z,15.25
2022-10-09T08:09:19.928Z,15.33
2022-10-09T08:11:47.982Z,15.48
2022-10-09T08:14:19.294Z,16.05
2022-10-09T08:16:48.684Z,15.58
2022-10-09T08:19:22.007Z,15.95
2022-10-09T08:21:50.312Z,16.04
2022-10-09T08:24:18.073Z,15.75
2022-10-09T08:26:46.016Z,15.81
2022-10-09T08:29:16.278Z,16.23
2022-10-09T08:31:44.116Z,16.29
2022-10-09T08:34:12.424Z,16.48
2022-10-09T08:36:43.604Z,16.19
2022-10-09T08:39:11.557Z,16.45
2022-10-09T08:41:48.966Z,16.98
2022-10-09T08:44:20.112Z,16.89
2022-10-09T08:46:54.923Z,17.00
2022-10-09T08:49:45.846Z,17.21
2022-10-09T08:52:45.707Z,17.09
2022-10-09T08:55:27.626Z,17.42
2022-10-09T08:58:04.766Z,17.36
2022-10-09T09:00:45.523Z,17.54
2022-10-09T09:03:50.826Z,17.55
2022-10-09T09:06:46.108Z,17.69
2022-10-09T09:09:29.012Z,17.58
2022-10-09T09:11:59.612Z,17.52
2022-10-09T09:14:40.497Z,17.82
2022-10-09T09:17:11.391Z,17.67
2022-10-09T09:19:51.508Z,17.90
2022-10-09T09:22:20.026Z,18.10
2022-10-09T09:24:56.730Z,17.95
2022-10-09T09:27:34.600Z,17.62
2022-10-09T09:30:15.520Z,17.68
2022-10-09T09:32:56.348Z,17.71
2022-10-09T09:35:41.657Z,17.97
2022-10-09T09:38:09.878Z,18.03
2022-10-09T09:40:39.295Z,17.98
2022-10-09T09:43:26.435Z,17.56
2022-10-09T09:45:57.276Z,18.14
2022-10-09T09:48:37.230Z,18.09
2022-10-09T09:51:27.337Z,17.94
2022-10-09T09:54:08.127Z,18.28
2022-10-09T09:59:41.885Z,18.63
2022-10-09T10:02:24.382Z,18.72
2022-10-09T10:05:00.415Z,18.53
2022-10-09T10:07:39.205Z,18.69
2022-10-09T10:10:24.015Z,18.76
2022-10-09T10:12:58.809Z,18.88
2022-10-09T10:15:32.497Z,18.67
2022-10-09T10:18:15.924Z,19.18
2022-10-09T10:20:47.728Z,19.18
2022-10-09T10:23:44.302Z,19.32
2022-10-09T10:26:49.651Z,19.18
2022-10-09T10:29:46.662Z,18.88
2022-10-09T10:32:29.649Z,19.20
2022-10-09T10:35:04.121Z,19.02
2022-10-09T10:38:13.612Z,19.15
2022-10-09T10:40:57.445Z,19.20
2022-10-09T10:43:33.018Z,19.49
2022-10-09T10:46:12.701Z,19.74
2022-10-09T10:48:48.728Z,19.67
2022-10-09T10:51:44.782Z,19.54
2022-10-09T10:54:36.536Z,19.84
2022-10-09T10:57:11.068Z,19.36
2022-10-09T10:59:45.700Z,19.44
2022-10-09T11:02:39.557Z,19.37
2022-10-09T11:05:49.595Z,19.38
2022-10-09T11:08:39.168Z,19.46
2022-10-09T11:11:28.409Z,19.39
2022-10-09T11:14:20.178Z,19.65
2022-10-09T11:17:07.410Z,19.69
2022-10-09T11:19:46.509Z,18.64
2022-10-09T11:22:25.089Z,18.45
2022-10-09T11:25:18.451Z,18.36
2022-10-09T11:28:22.164Z,18.53
2022-10-09T11:31:08.839Z,19.17
2022-10-09T11:33:45.669Z,19.12
2022-10-09T11:36:20.609Z,19.27
2022-10-09T11:39:16.440Z,19.03
2022-10-09T11:41:47.106Z,18.62
2022-10-09T11:44:15.387Z,18.78
2022-10-09T11:47:01.775Z,18.78
2022-10-09T11:49:35.969Z,19.08
2022-10-09T11:52:36.205Z,19.61
2022-10-09T11:55:18.576Z,18.83
2022-10-09T11:57:46.897Z,18.32
2022-10-09T12:00:17.105Z,18.45
2022-10-09T12:02:59.124Z,18.59
2022-10-09T12:05:43.739Z,18.50
2022-10-09T12:08:27.169Z,18.64
2022-10-09T12:10:57.428Z,18.59
2022-10-09T12:13:37.017Z,18.43
2022-10-09T12:16:06.997Z,18.13
2022-10-09T12:18:38.019Z,17.55
2022-10-09T12:21:17.975Z,17.29
2022-10-09T12:23:47.706Z,17.47
2022-10-09T12:26:17.325Z,17.23
2022-10-09T12:29:02.341Z,17.24
2022-10-09T12:31:35.928Z,17.00
2022-10-09T12:34:21.926Z,16.90
2022-10-09T12:36:50.241Z,16.99
2022-10-09T12:39:23.962Z,17.03
2022-10-09T12:41:56.448Z,17.09
2022-10-09T12:44:31.491Z,17.07
2022-10-09T12:47:04.285Z,16.70
2022-10-09T12:49:32.372Z,16.60
2022-10-09T12:52:01.528Z,16.41
2022-10-09T12:54:31.783Z,16.31
2022-10-09T12:57:01.272Z,15.93
2022-10-09T12:59:33.647Z,15.85
2022-10-09T13:05:06.560Z,16.46
2022-10-09T13:07:34.495Z,15.89
2022-10-09T13:10:24.157Z,15.73
2022-10-09T13:12:57.714Z,15.62
2022-10-09T13:15:34.713Z,16.03
2022-10-09T13:18:23.571Z,15.85
2022-10-09T13:21:05.618Z,15.50
2022-10-09T13:23:35.754Z,15.48
2022-10-09T13:26:06.309Z,15.91
2022-10-09T13:28:38.390Z,15.78
2022-10-09T13:31:09.661Z,15.83
2022-10-09T13:33:37.941Z,15.53
2022-10-09T13:36:05.877Z,15.67
2022-10-09T13:38:35.193Z,15.66
2022-10-09T13:41:03.869Z,15.18
2022-10-09T13:43:31.741Z,15.28
2022-10-09T13:45:59.773Z,14.93
2022-10-09T13:48:39.726Z,15.09
2022-10-09T13:51:08.858Z,14.82
2022-10-09T13:53:36.948Z,14.87
2022-10-09T13:56:05.002Z,15.09
2022-10-09T13:58:33.079Z,15.05
2022-10-09T14:01:01.271Z,15.14
2022-10-09T14:03:29.376Z,14.93
2022-10-09T14:06:01.825Z,14.70
2022-10-09T14:08:30.569Z,14.78
2022-10-09T14:11:01.448Z,14.71
2022-10-09T14:13:29.531Z,15.02
2022-10-09T14:15:57.587Z,15.48
2022-10-09T14:18:28.543Z,15.39
2022-10-09T14:20:56.185Z,15.41
2022-10-09T14:23:27.261Z,15.08
2022-10-09T14:25:54.928Z,14.88
2022-10-09T14:28:22.803Z,14.85
2022-10-09T14:30:50.986Z,14.69
2022-10-09T14:33:18.662Z,14.75
2022-10-09T14:35:46.478Z,14.50
2022-10-09T14:38:14.582Z,14.04
2022-10-09T14:40:43.999Z,13.96
2022-10-09T14:43:12.339Z,13.71
2022-10-09T14:45:40.616Z,13.68
2022-10-09T14:48:08.995Z,13.55
2022-10-09T14:50:36.812Z,13.67
2022-10-09T14:53:05.232Z,13.89
2022-10-09T14:55:35.452Z,14.13
2022-10-09T14:58:03.153Z,14.00
2022-10-09T15:00:31.167Z,14.10
2022-10-09T15:02:59.798Z,13.96
2022-10-09T15:05:27.845Z,13.89
2022-10-09T15:07:55.995Z,13.78
2022-10-09T15:10:23.894Z,14.15
2022-10-09T15:12:54.479Z,14.12
2022-10-09T15:15:22.794Z,14.01
2022-10-09T15:17:50.773Z,13.88
2022-10-09T15:20:18.887Z,14.06
2022-10-09T15:22:47.247Z,14.05
2022-10-09T15:25:16.964Z,14.15
2022-10-09T15:27:44.873Z,13.95
2022-10-09T15:30:13.482Z,14.10
2022-10-09T15:32:41.340Z,13.96
2022-10-09T15:35:12.325Z,13.79
2022-10-09T15:37:41.033Z,13.71
2022-10-09T15:40:09.504Z,13.43
2022-10-09T15:42:40.613Z,13.45
2022-10-09T15:45:09.687Z,13.52
2022-10-09T15:47:50.421Z,13.34
2022-10-09T15:50:19.625Z,13.51
2022-10-09T15:52:47.768Z,12.45
2022-10-09T15:55:15.766Z,12.46
2022-10-09T15:57:47.219Z,12.44
2022-10-09T16:00:15.430Z,12.39
2022-10-09T16:02:43.701Z,12.48
2022-10-09T16:05:11.562Z,12.77
2022-10-09T16:07:39.430Z,12.67
2022-10-09T16:10:10.874Z,12.33
2022-10-09T16:12:44.365Z,12.15
2022-10-09T16:15:12.626Z,12.02
2022-10-09T16:17:40.473Z,11.93
2022-10-09T16:20:11.605Z,11.97
2022-10-09T16:22:39.811Z,11.97
2022-10-09T16:25:08.250Z,11.99
2022-10-09T16:27:36.243Z,12.02
2022-10-09T16:30:05.816Z,12.03
2022-10-09T16:32:33.618Z,12.26
2022-10-09T16:35:01.451Z,12.15
2022-10-09T16:37:30.294Z,12.01
2022-10-09T16:40:01.448Z,11.99
2022-10-09T16:42:30.873Z,12.18
2022-10-09T16:44:59.880Z,12.06
2022-10-09T16:47:27.931Z,12.08
2022-10-09T16:49:56.179Z,12.17
2022-10-09T16:52:24.009Z,11.79
2022-10-09T16:54:51.697Z,11.86
2022-10-09T16:57:19.884Z,11.91
2022-10-09T16:59:48.689Z,11.75
2022-10-09T17:02:17.161Z,11.83
2022-10-09T17:04:46.307Z,11.94
2022-10-09T17:07:15.318Z,11.90
2022-10-09T17:09:43.522Z,11.78
2022-10-09T17:12:13.367Z,11.71
2022-10-09T17:14:41.491Z,11.52
2022-10-09T17:17:11.026Z,11.64
2022-10-09T17:19:39.647Z,11.89
2022-10-09T17:22:07.486Z,11.70
2022-10-09T17:24:35.616Z,11.66
2022-10-09T17:27:05.213Z,11.55
2022-10-09T17:29:33.047Z,11.61
2022-10-09T17:32:00.809Z,11.69
2022-10-09T17:34:29.462Z,11.32
2022-10-09T17:36:57.244Z,11.44
2022-10-09T17:39:24.945Z,11.46
2022-10-09T17:41:53.046Z,11.21
2022-10-09T17:44:23.820Z,11.29
2022-10-09T17:46:51.536Z,11.23
2022-10-09T17:49:19.584Z,11.13
2022-10-09T17:51:48.547Z,10.95
2022-10-09T17:54:17.585Z,10.92
2022-10-09T17:56:46.001Z,10.89
2022-10-09T18:02:01.455Z,11.01
2022-10-09T18:04:29.578Z,10.81
2022-10-09T18:06:57.326Z,10.95
2022-10-09T18:09:25.244Z,10.86
2022-10-09T18:11:53.340Z,10.72
2022-10-09T18:14:21.058Z,10.67
2022-10-09T18:16:48.895Z,10.64
2022-10-09T18:19:20.668Z,10.81
2022-10-09T18:21:50.310Z,11.11
2022-10-09T18:24:18.756Z,11.26
2022-10-09T18:26:46.664Z,10.76
2022-10-09T18:29:14.405Z,10.53
2022-10-09T18:31:42.867Z,10.60
2022-10-09T18:34:11.013Z,10.49
2022-10-09T18:36:39.653Z,10.46
2022-10-09T18:39:13.676Z,10.44
2022-10-09T18:41:42.410Z,10.38
2022-10-09T18:44:17.731Z,10.35
2022-10-09T18:46:51.170Z,10.48
2022-10-09T18:49:25.274Z,10.40
2022-10-09T18:51:53.328Z,10.36
2022-10-09T18:54:24.558Z,10.34
2022-10-09T18:56:53.279Z,10.34
2022-10-09T18:59:22.790Z,10.34
2022-10-09T19:01:50.577Z,10.35
2022-10-09T19:04:19.303Z,10.27
2022-10-09T19:06:47.568Z,10.19
2022-10-09T19:09:15.941Z,10.27
2022-10-09T19:11:43.773Z,10.30
2022-10-09T19:14:11.930Z,10.26
2022-10-09T19:16:40.108Z,10.27
2022-10-09T19:19:08.199Z,10.22
2022-10-09T19:21:38.253Z,10.27
2022-10-09T19:24:07.376Z,10.26
2022-10-09T19:26:35.607Z,10.14
2022-10-09T19:29:05.687Z,10.22
2022-10-09T19:31:35.151Z,10.23
2022-10-09T19:34:05.354Z,10.16
2022-10-09T19:36:35.360Z,10.25
2022-10-09T19:39:05.243Z,10.30
2022-10-09T19:41:36.327Z,10.28
2022-10-09T19:44:04.707Z,10.22
2022-10-09T19:46:32.641Z,10.16
2022-10-09T19:49:01.534Z,10.07
2022-10-09T19:51:29.733Z,10.05
2022-10-09T19:53:59.430Z,10.00
2022-10-09T19:56:30.619Z,9.96
2022-10-09T19:59:02.775Z,9.90
2022-10-09T20:01:33.114Z,9.83
2022-10-09T20:04:07.997Z,9.85
2022-10-09T20:06:41.075Z,9.82
2022-10-09T20:09:11.914Z,9.80
2022-10-09T20:11:40.093Z,9.80
2022-10-09T20:14:09.567Z,9.77
2022-10-09T20:16:38.416Z,9.82
2022-10-09T20:19:07.051Z,9.83
2022-10-09T20:21:35.176Z,9.81
2022-10-09T20:24:03.432Z,9.80
2022-10-09T20:26:33.388Z,9.79
2022-10-09T20:29:01.217Z,9.77
2022-10-09T20:31:30.523Z,9.73
2022-10-09T20:34:01.633Z,9.72
2022-10-09T20:36:38.491Z,9.72
2022-10-09T20:39:12.227Z,9.70
2022-10-09T20:41:41.617Z,9.65
2022-10-09T20:44:11.495Z,9.64
2022-10-09T20:46:39.952Z,9.61
2022-10-09T20:49:15.484Z,9.60
2022-10-09T20:51:43.631Z,9.56
2022-10-09T20:54:16.675Z,9.60
2022-10-09T20:56:47.344Z,9.60
2022-10-09T20:59:16.158Z,9.61
2022-10-09T21:01:43.932Z,9.61
2022-10-09T21:04:12.517Z,9.57
2022-10-09T21:06:42.088Z,9.58
2022-10-09T21:09:13.214Z,9.59
2022-10-09T21:11:41.926Z,9.56
2022-10-09T21:14:10.735Z,9.56
2022-10-09T21:16:38.680Z,9.55
2022-10-09T21:19:06.987Z,9.53
2022-10-09T21:21:35.163Z,9.54
2022-10-09T21:24:03.849Z,9.54
2022-10-09T21:26:37.888Z,9.49
2022-10-09T21:29:06.228Z,9.50
2022-10-09T21:31:34.613Z,9.52
2022-10-09T21:34:02.844Z,9.48
2022-10-09T21:37:02.169Z,9.50
2022-10-09T21:39:31.826Z,9.49
2022-10-09T21:41:59.619Z,9.52
2022-10-09T21:44:27.967Z,9.53
2022-10-09T21:46:56.453Z,9.49
2022-10-09T21:49:27.508Z,9.54
2022-10-09T21:51:56.081Z,9.52
2022-10-09T21:54:25.094Z,9.53
2022-10-09T21:56:52.944Z,9.54
2022-10-09T21:59:23.836Z,9.49
2022-10-09T22:01:51.913Z,9.51
2022-10-09T22:04:20.278Z,9.54
2022-10-09T22:06:48.078Z,9.58
2022-10-09T22:09:15.774Z,9.58
2022-10-09T22:11:45.251Z,9.60
2022-10-09T22:14:13.355Z,9.60
2022-10-09T22:16:44.291Z,9.63
2022-10-09T22:19:12.603Z,9.62
2022-10-09T22:21:40.560Z,9.64
2022-10-09T22:24:08.458Z,9.67
2022-10-09T22:26:36.796Z,9.70
2022-10-09T22:29:04.607Z,9.70
2022-10-09T22:31:32.441Z,9.70
2022-10-09T22:34:01.987Z,9.63
2022-10-09T22:36:33.249Z,9.67
2022-10-09T22:39:08.156Z,9.65
2022-10-09T22:41:36.468Z,9.66
2022-10-09T22:44:06.782Z,9.69
2022-10-09T22:46:40.872Z,9.65
2022-10-09T22:49:12.137Z,9.61
2022-10-09T22:51:40.067Z,9.68
2022-10-09T22:54:12.864Z,9.69
2022-10-09T22:56:43.881Z,9.66
2022-10-09T22:59:15.337Z,9.72
2022-10-09T23:01:48.712Z,9.73
2022-10-09T23:04:18.474Z,9.74
2022-10-09T23:06:50.762Z,9.70
2022-10-09T23:09:19.101Z,9.71
2022-10-09T23:11:47.388Z,9.74
2022-10-09T23:14:15.228Z,9.73
2022-10-09T23:16:43.521Z,9.66
2022-10-09T23:19:12.391Z,9.68
2022-10-09T23:21:42.339Z,9.67
2022-10-09T23:24:12.723Z,9.66
2022-10-09T23:26:41.225Z,9.65
2022-10-09T23:29:14.797Z,9.66
2022-10-09T23:31:43.612Z,9.68
2022-10-09T23:34:11.997Z,9.67
2022-10-09T23:36:39.746Z,9.61
2022-10-09T23:39:08.158Z,9.63
2022-10-09T23:41:36.450Z,9.64
2022-10-09T23:44:04.342Z,9.58
2022-10-09T23:46:37.878Z,9.42
2022-10-09T23:49:06.131Z,9.41
2022-10-09T23:51:34.418Z,9.37
2022-10-09T23:54:02.240Z,9.32
2022-10-09T23:56:33.970Z,9.27
2022-10-09T23:59:07.495Z,9.20
